Time;durP1;ratioP1;P1;durP2;ratioP2;P2;SDS_P1;SDS_P2;PMS_P1;PMS_P2;Temp;Humidity;BMP_temperature;BMP_pressure;BME280_temperature;BME280_humidity;BME280_pressure;Samples;Min_cycle;Max_cycle;Signal;HPM_P1;HPM_P2
2021/05/11 00:03:15;;;;;;;1.90;0.93;;;13.60;99.90;;;;;;12897530;23;20018;-50
2021/05/11 00:08:37;;;;;;;2.20;0.52;;;13.50;99.90;;;;;;12900159;23;20047;-50
2021/05/11 00:13:58;;;;;;;2.90;1.02;;;13.60;99.90;;;;;;12898843;23;20035;-50
2021/05/11 00:19:19;;;;;;;4.05;0.98;;;13.50;99.90;;;;;;12894577;22;20383;-50
2021/05/11 00:24:40;;;;;;;1.88;0.65;;;13.60;99.90;;;;;;12899802;22;20420;-50
2021/05/11 00:30:02;;;;;;;1.73;0.80;;;13.50;99.90;;;;;;12875863;23;20043;-50
2021/05/11 00:35:23;;;;;;;2.83;1.00;;;13.50;99.90;;;;;;12895135;23;20008;-50
2021/05/11 00:40:44;;;;;;;4.30;0.80;;;13.50;99.90;;;;;;12876941;23;20012;-50
2021/05/11 00:46:05;;;;;;;5.28;1.20;;;13.50;99.90;;;;;;12894749;23;20077;-50
2021/05/11 00:51:26;;;;;;;2.88;1.23;;;13.40;99.90;;;;;;12895133;23;20225;-50
2021/05/11 00:56:48;;;;;;;2.47;0.98;;;13.40;99.90;;;;;;12897681;22;20467;-50
2021/05/11 01:02:09;;;;;;;6.45;1.98;;;13.40;99.90;;;;;;12872720;23;20317;-50
2021/05/11 01:07:31;;;;;;;2.58;0.82;;;13.40;99.90;;;;;;12896829;23;20463;-50
2021/05/11 01:12:52;;;;;;;2.30;1.10;;;13.40;99.90;;;;;;12896424;23;20020;-50
2021/05/11 01:18:14;;;;;;;1.02;0.45;;;13.40;99.90;;;;;;12893354;22;20040;-50
2021/05/11 01:29:09;;;;;;;5.03;0.75;;;13.30;99.90;;;;;;12871675;23;20025;-50
2021/05/11 01:57:38;;;;;;;1.02;0.57;;;13.10;99.90;;;;;;12896024;23;20471;-50
2021/05/11 02:25:30;;;;;;;1.67;0.73;;;12.80;99.90;;;;;;12896954;23;20016;-50
2021/05/11 02:30:52;;;;;;;2.90;0.43;;;12.80;99.90;;;;;;12895316;23;20020;-50
2021/05/11 02:36:12;;;;;;;2.13;0.85;;;12.70;99.90;;;;;;12895916;23;20019;-50
2021/05/11 02:41:33;;;;;;;3.47;0.68;;;12.60;99.90;;;;;;12880567;22;20066;-50
2021/05/11 02:46:54;;;;;;;1.98;0.65;;;12.50;99.90;;;;;;12898561;22;20020;-50
2021/05/11 02:52:16;;;;;;;2.00;0.80;;;12.40;99.90;;;;;;12900768;22;20575;-50
2021/05/11 02:57:37;;;;;;;4.97;1.48;;;12.30;99.90;;;;;;12897017;23;20054;-50
2021/05/11 03:02:58;;;;;;;1.48;0.90;;;12.20;99.90;;;;;;12897239;23;20406;-50
2021/05/11 03:08:19;;;;;;;2.58;1.25;;;12.10;99.90;;;;;;12898217;23;20023;-50
2021/05/11 03:13:40;;;;;;;1.60;0.52;;;12.00;99.90;;;;;;12900562;23;20031;-50
2021/05/11 03:19:01;;;;;;;2.80;0.70;;;11.90;99.90;;;;;;12895532;23;20016;-50
2021/05/11 03:24:22;;;;;;;2.42;0.75;;;11.80;99.90;;;;;;12897571;23;20019;-50
2021/05/11 03:29:44;;;;;;;2.88;0.88;;;11.80;99.90;;;;;;12897492;23;20032;-50
2021/05/11 03:35:05;;;;;;;1.67;0.65;;;11.70;99.90;;;;;;12893304;23;20020;-49
2021/05/11 03:40:26;;;;;;;1.60;0.60;;;11.70;99.90;;;;;;12896548;23;20436;-50
2021/05/11 03:45:51;;;;;;;3.60;1.15;;;11.70;99.90;;;;;;12896515;23;20501;-50
2021/05/11 03:51:14;;;;;;;8.60;0.90;;;11.80;99.90;;;;;;12893424;23;20020;-50
2021/05/11 03:56:35;;;;;;;3.75;0.63;;;11.80;99.90;;;;;;12893831;23;20205;-50
2021/05/11 04:01:57;;;;;;;4.85;0.88;;;11.80;99.90;;;;;;12892046;23;20020;-50
2021/05/11 04:07:18;;;;;;;2.30;1.38;;;11.90;99.90;;;;;;12894709;23;20761;-50
2021/05/11 04:18:19;;;;;;;3.85;1.20;;;12.10;99.90;;;;;;12876352;23;20343;-50
2021/05/11 04:23:40;;;;;;;1.15;0.60;;;12.10;99.90;;;;;;12853370;23;20105;-50
2021/05/11 04:29:02;;;;;;;3.67;1.25;;;12.20;99.90;;;;;;12896416;22;20016;-50
2021/05/11 04:34:23;;;;;;;3.78;1.10;;;12.20;99.90;;;;;;12851964;23;20019;-50
2021/05/11 04:39:44;;;;;;;2.13;0.70;;;12.20;99.90;;;;;;12875060;23;20023;-50
2021/05/11 04:45:06;;;;;;;1.45;0.70;;;12.30;99.90;;;;;;12895490;23;20012;-50
2021/05/11 04:50:28;;;;;;;2.00;0.93;;;12.30;99.90;;;;;;12893631;23;20012;-50
2021/05/11 04:55:49;;;;;;;1.92;0.65;;;12.30;99.90;;;;;;12894105;22;20551;-50
2021/05/11 05:01:10;;;;;;;1.17;0.65;;;12.40;99.90;;;;;;12889626;23;20024;-50
2021/05/11 05:06:31;;;;;;;3.90;1.42;;;12.50;99.90;;;;;;12894511;22;20016;-50
2021/05/11 05:11:52;;;;;;;4.38;0.80;;;12.50;99.90;;;;;;12898461;22;20121;-50
2021/05/11 05:17:13;;;;;;;2.33;0.88;;;12.50;99.90;;;;;;12892449;23;20024;-50
2021/05/11 05:22:34;;;;;;;1.77;0.82;;;12.60;99.90;;;;;;12871221;23;20027;-50
2021/05/11 05:33:16;;;;;;;4.93;1.77;;;12.70;99.90;;;;;;12869901;23;20113;-50
2021/05/11 05:38:40;;;;;;;2.60;1.10;;;12.80;99.90;;;;;;12850888;23;20022;-50
2021/05/11 05:44:01;;;;;;;2.25;1.05;;;13.00;99.90;;;;;;12895796;23;20012;-50
2021/05/11 05:49:25;;;;;;;3.13;1.10;;;13.10;99.90;;;;;;12897159;23;20031;-50
2021/05/11 05:54:47;;;;;;;5.03;1.20;;;13.20;99.90;;;;;;12897296;23;20345;-50
2021/05/11 06:00:09;;;;;;;4.93;2.60;;;13.40;99.90;;;;;;12896295;23;20027;-50
2021/05/11 06:05:31;;;;;;;3.10;1.00;;;13.60;99.90;;;;;;12900224;22;20012;-50
2021/05/11 06:10:57;;;;;;;2.50;0.98;;;13.70;99.90;;;;;;12898057;23;20448;-50
2021/05/11 06:21:57;;;;;;;1.70;0.70;;;13.90;99.90;;;;;;12898308;23;20447;-50
2021/05/11 06:27:19;;;;;;;2.30;1.20;;;14.10;99.90;;;;;;12897688;23;20091;-50
2021/05/11 06:32:40;;;;;;;4.18;1.20;;;14.30;99.90;;;;;;12861683;23;20043;-48
2021/05/11 06:38:01;;;;;;;2.88;0.63;;;14.40;99.90;;;;;;12893714;23;20102;-48
2021/05/11 06:43:33;;;;;;;10.48;2.05;;;14.50;99.90;;;;;;12897972;23;20448;-48
2021/05/11 06:54:15;;;;;;;5.95;1.40;;;14.70;99.90;;;;;;12892446;23;20008;-48
2021/05/11 06:59:36;;;;;;;2.30;1.23;;;14.80;99.90;;;;;;12897932;23;20012;-48
2021/05/11 07:04:57;;;;;;;2.63;1.40;;;14.90;99.90;;;;;;12874701;23;20016;-48
2021/05/11 07:10:22;;;;;;;7.63;2.33;;;15.00;99.90;;;;;;12896135;23;20519;-48
2021/05/11 07:15:45;;;;;;;3.38;2.03;;;15.00;99.90;;;;;;12887048;23;20016;-48
2021/05/11 07:21:06;;;;;;;3.97;1.25;;;15.00;99.90;;;;;;12893261;23;20016;-48
2021/05/11 07:26:28;;;;;;;5.72;1.90;;;15.10;99.90;;;;;;12892187;22;20394;-48
2021/05/11 07:31:49;;;;;;;5.68;1.85;;;15.30;99.90;;;;;;12882089;22;20020;-48
2021/05/11 07:37:11;;;;;;;6.82;1.77;;;15.50;99.90;;;;;;12894861;22;20444;-48
2021/05/11 07:42:32;;;;;;;3.33;1.20;;;15.60;99.90;;;;;;12866168;23;20469;-48
2021/05/11 07:48:26;;;;;;;3.97;1.75;;;15.70;99.90;;;;;;12887405;22;20016;-48
2021/05/11 08:16:13;;;;;;;2.97;1.35;;;16.10;99.90;;;;;;12883146;23;20363;-48
2021/05/11 08:33:07;;;;;;;8.85;1.60;;;16.40;99.90;;;;;;12845341;23;19939;-48
2021/05/11 08:38:35;;;;;;;4.30;1.48;;;16.50;99.90;;;;;;10438100;27;20770;-46
2021/05/11 08:43:56;;;;;;;3.40;1.75;;;16.40;99.90;;;;;;10429670;28;20036;-48
2021/05/11 08:49:17;;;;;;;5.57;1.77;;;16.40;99.90;;;;;;10397626;28;20837;-48
2021/05/11 08:54:50;;;;;;;6.93;2.08;;;16.50;99.90;;;;;;10386851;28;20063;-48
2021/05/11 09:29:00;;;;;;;3.78;1.77;;;16.90;99.90;;;;;;10473551;28;20040;-48
2021/05/11 09:50:53;;;;;;;7.13;1.95;;;16.80;99.90;;;;;;10462200;28;19912;-48
2021/05/11 10:38:43;;;;;;;5.75;1.88;;;17.00;99.90;;;;;;10446423;28;20537;-50
2021/05/11 10:44:09;;;;;;;8.30;2.22;;;17.10;99.90;;;;;;10445612;28;20308;-50
2021/05/11 11:09:08;;;;;;;5.32;1.77;;;17.30;99.90;;;;;;10447636;23;20187;-82
2021/05/11 11:14:40;;;;;;;5.93;2.38;;;17.50;99.90;;;;;;10338108;28;20385;-82
2021/05/11 11:20:03;;;;;;;3.45;1.80;;;17.70;99.90;;;;;;10354737;28;20064;-82
2021/05/11 11:25:24;;;;;;;4.43;2.25;;;17.80;99.90;;;;;;10343169;28;20041;-82
2021/05/11 11:30:45;;;;;;;5.13;2.13;;;18.30;99.90;;;;;;10347874;28;20060;-80
2021/05/11 11:36:30;;;;;;;6.47;2.20;;;18.70;99.90;;;;;;10326834;28;20053;-80
2021/05/11 11:41:54;;;;;;;6.38;2.17;;;18.90;99.90;;;;;;10357990;28;20210;-81
2021/05/11 11:47:15;;;;;;;2.60;1.33;;;19.00;99.90;;;;;;10341257;28;20399;-80
2021/05/11 11:52:52;;;;;;;3.30;1.10;;;19.00;99.90;;;;;;10336519;28;20033;-80
2021/05/11 11:58:21;;;;;;;9.10;2.33;;;18.70;99.90;;;;;;10346862;28;20037;-81
2021/05/11 12:03:44;;;;;;;4.95;1.98;;;18.40;99.90;;;;;;10358684;28;20088;-80
2021/05/11 12:09:05;;;;;;;6.88;1.95;;;18.20;99.90;;;;;;10346112;28;20045;-80
2021/05/11 12:14:26;;;;;;;4.63;1.75;;;17.80;99.90;;;;;;10319882;28;20133;-80
2021/05/11 12:19:48;;;;;;;3.53;1.40;;;17.70;99.90;;;;;;10341252;28;20038;-80
2021/05/11 12:25:09;;;;;;;11.95;2.05;;;17.60;99.90;;;;;;10355203;28;20033;-80
2021/05/11 12:30:41;;;;;;;4.82;1.88;;;17.60;99.90;;;;;;10365830;28;20567;-80
2021/05/11 12:36:19;;;;;;;4.50;2.13;;;17.80;99.90;;;;;;10372613;28;20434;-82
2021/05/11 12:41:40;;;;;;;4.47;2.10;;;17.70;99.90;;;;;;10364698;28;20391;-81
2021/05/11 12:47:02;;;;;;;3.95;2.22;;;17.60;99.90;;;;;;10344554;28;20418;-82
2021/05/11 12:52:29;;;;;;;7.95;2.70;;;17.50;99.90;;;;;;10371265;28;20038;-82
2021/05/11 12:57:55;;;;;;;10.20;3.20;;;17.70;99.90;;;;;;10359371;28;20038;-81
2021/05/11 13:03:40;;;;;;;6.47;2.95;;;17.60;99.90;;;;;;10350694;28;20670;-80
2021/05/11 13:09:24;;;;;;;9.50;2.65;;;17.70;99.90;;;;;;10360045;28;20045;-81
2021/05/11 13:26:48;;;;;;;3.92;1.00;;;17.70;99.90;;;;;;10249649;28;20118;-80
2021/05/11 13:32:17;;;;;;;2.60;0.95;;;17.70;99.90;;;;;;10375428;28;20049;-81
2021/05/11 13:37:38;;;;;;;3.22;1.00;;;17.70;99.90;;;;;;10369101;28;20115;-81
2021/05/11 13:43:00;;;;;;;4.32;1.92;;;17.50;99.90;;;;;;10353669;28;20042;-81
2021/05/11 13:48:39;;;;;;;4.78;1.33;;;17.50;99.90;;;;;;10379288;28;20400;-83
2021/05/11 13:54:03;;;;;;;3.42;1.23;;;17.40;99.90;;;;;;10354003;28;20813;-81
2021/05/11 14:05:05;;;;;;;4.03;1.33;;;17.10;99.90;;;;;;10361619;28;20038;-81
2021/05/11 14:10:26;;;;;;;5.15;1.63;;;16.90;99.90;;;;;;10357658;28;20732;-81
2021/05/11 14:15:47;;;;;;;5.90;1.70;;;16.80;99.90;;;;;;10362208;28;20065;-80
2021/05/11 14:21:08;;;;;;;2.90;1.35;;;16.80;99.90;;;;;;10363688;28;20493;-81
2021/05/11 14:26:29;;;;;;;3.40;1.30;;;16.80;99.90;;;;;;10342275;28;20033;-80
2021/05/11 14:31:50;;;;;;;5.45;1.85;;;16.80;99.90;;;;;;10349611;28;20508;-81
2021/05/11 14:37:11;;;;;;;5.03;1.45;;;16.80;99.90;;;;;;10279758;28;20045;-83
2021/05/11 14:42:32;;;;;;;3.13;1.40;;;16.80;99.90;;;;;;10323836;28;20096;-81
2021/05/11 14:47:54;;;;;;;3.58;1.52;;;16.80;99.90;;;;;;10314995;28;20136;-81
2021/05/11 14:53:15;;;;;;;4.38;1.20;;;16.80;99.90;;;;;;10336598;28;20382;-80
2021/05/11 15:21:45;;;;;;;4.60;2.30;;;17.30;99.90;;;;;;10265339;28;20563;-76
2021/05/11 15:37:24;;;;;;;3.80;1.55;;;17.20;99.90;;;;;;10249571;28;20476;-80
2021/05/11 15:42:45;;;;;;;6.50;2.13;;;17.40;99.90;;;;;;10169698;28;20577;-80
2021/05/11 15:48:08;;;;;;;4.55;2.08;;;17.40;99.90;;;;;;10233327;28;20057;-80
2021/05/11 15:53:29;;;;;;;5.43;1.83;;;17.40;99.90;;;;;;10199859;28;20114;-80
2021/05/11 15:58:52;;;;;;;4.97;1.80;;;17.40;99.90;;;;;;10242110;28;20521;-80
2021/05/11 16:04:13;;;;;;;3.75;1.33;;;17.30;99.90;;;;;;10186658;28;20046;-84
2021/05/11 16:09:34;;;;;;;4.72;1.88;;;17.20;99.90;;;;;;10206139;28;20042;-83
2021/05/11 16:14:55;;;;;;;3.80;1.63;;;17.10;99.90;;;;;;10239477;28;21129;-80
2021/05/11 16:20:16;;;;;;;4.35;1.83;;;17.00;99.90;;;;;;10217506;28;20027;-80
2021/05/11 16:25:38;;;;;;;2.55;1.52;;;16.80;99.90;;;;;;10227809;28;20102;-81
2021/05/11 16:30:59;;;;;;;6.70;1.92;;;16.70;99.90;;;;;;10227250;28;20043;-81
2021/05/11 16:36:20;;;;;;;3.00;1.33;;;16.50;99.90;;;;;;10209223;28;20055;-80
2021/05/11 16:41:41;;;;;;;3.97;1.75;;;16.50;99.90;;;;;;10228848;28;20070;-81
2021/05/11 16:47:03;;;;;;;4.40;1.50;;;16.50;99.90;;;;;;10218702;28;20089;-83
2021/05/11 16:52:24;;;;;;;4.53;0.93;;;16.40;99.90;;;;;;10247693;28;20054;-81
2021/05/11 16:57:45;;;;;;;3.33;1.10;;;16.40;99.90;;;;;;10236890;28;20281;-80
2021/05/11 17:03:06;;;;;;;3.38;1.17;;;16.50;99.90;;;;;;10280317;28;20580;-81
2021/05/11 17:08:27;;;;;;;2.72;0.98;;;16.30;99.90;;;;;;10217640;28;20447;-80
2021/05/11 17:13:48;;;;;;;6.78;1.40;;;16.20;99.90;;;;;;10232656;28;20047;-79
2021/05/11 17:19:09;;;;;;;3.47;1.52;;;15.90;99.90;;;;;;10232516;28;20414;-80
2021/05/11 17:24:30;;;;;;;1.92;0.90;;;15.50;99.90;;;;;;10221925;28;20065;-79
2021/05/11 17:29:52;;;;;;;5.65;1.48;;;15.20;99.90;;;;;;10216819;28;20119;-84
2021/05/11 17:35:15;;;;;;;4.10;1.50;;;15.00;99.90;;;;;;10205731;28;20526;-80
2021/05/11 17:40:36;;;;;;;3.00;1.52;;;14.80;99.90;;;;;;10222934;28;20047;-82
2021/05/11 17:45:58;;;;;;;4.80;1.15;;;14.70;99.90;;;;;;10250264;28;20043;-81
2021/05/11 17:51:21;;;;;;;3.60;1.40;;;14.60;99.90;;;;;;10234921;28;20089;-78
2021/05/11 17:56:42;;;;;;;5.13;1.55;;;14.50;99.90;;;;;;10236717;28;20047;-80
2021/05/11 18:02:03;;;;;;;7.88;2.15;;;14.60;99.90;;;;;;10221028;28;20750;-81
2021/05/11 18:07:24;;;;;;;2.40;1.10;;;14.60;99.90;;;;;;10229326;28;20144;-81
2021/05/11 18:12:45;;;;;;;5.18;1.60;;;14.60;99.90;;;;;;10201234;28;20138;-84
2021/05/11 18:18:06;;;;;;;4.55;1.60;;;14.60;99.90;;;;;;10242047;28;20677;-81
2021/05/11 18:23:27;;;;;;;4.90;1.77;;;14.50;99.90;;;;;;10215440;28;20068;-83
2021/05/11 18:28:48;;;;;;;4.13;1.92;;;14.50;99.90;;;;;;10199215;28;20190;-81
2021/05/11 18:34:09;;;;;;;3.22;1.48;;;14.60;99.90;;;;;;10211795;28;20434;-81
2021/05/11 18:39:30;;;;;;;4.40;1.80;;;14.60;99.90;;;;;;10232654;28;20049;-80
2021/05/11 18:44:51;;;;;;;3.33;1.80;;;14.50;99.90;;;;;;10244944;28;20514;-82
2021/05/11 18:50:12;;;;;;;5.05;1.63;;;14.50;99.90;;;;;;10222933;28;20056;-83
2021/05/11 18:55:34;;;;;;;4.57;2.05;;;14.40;99.90;;;;;;10240445;28;20059;-80
2021/05/11 19:00:55;;;;;;;3.60;2.15;;;14.40;99.90;;;;;;10239124;28;20042;-80
2021/05/11 19:06:17;;;;;;;5.55;2.85;;;14.40;99.90;;;;;;10213365;28;20047;-78
2021/05/11 19:11:39;;;;;;;4.72;1.70;;;14.40;99.90;;;;;;10257559;28;20066;-79
2021/05/11 19:17:00;;;;;;;3.47;1.42;;;14.40;99.90;;;;;;10223959;28;20109;-81
2021/05/11 19:22:22;;;;;;;4.45;2.05;;;14.30;99.90;;;;;;10243110;28;20054;-81
2021/05/11 19:27:43;;;;;;;4.72;1.90;;;14.20;99.90;;;;;;10235978;28;20046;-79
2021/05/11 19:33:04;;;;;;;4.38;1.90;;;14.10;99.90;;;;;;10228887;28;20050;-79
2021/05/11 19:38:25;;;;;;;3.45;1.95;;;14.10;99.90;;;;;;10231916;28;20470;-81
2021/05/11 19:43:46;;;;;;;5.35;2.30;;;14.20;99.90;;;;;;10201220;28;20058;-80
2021/05/11 19:49:08;;;;;;;9.43;2.85;;;14.10;99.90;;;;;;10216153;28;20053;-80
2021/05/11 19:54:29;;;;;;;4.63;1.80;;;14.10;99.90;;;;;;10217108;28;20035;-80
2021/05/11 19:59:50;;;;;;;3.65;1.73;;;14.10;99.90;;;;;;10210967;28;20071;-81
2021/05/11 20:05:12;;;;;;;7.05;1.80;;;14.20;99.90;;;;;;10232939;28;20043;-80
2021/05/11 20:10:34;;;;;;;3.70;1.52;;;14.20;99.90;;;;;;10217068;28;20050;-82
2021/05/11 20:15:55;;;;;;;3.42;1.38;;;14.20;99.90;;;;;;10210714;28;20390;-83
2021/05/11 20:21:17;;;;;;;3.70;1.65;;;14.10;99.90;;;;;;10213147;28;20482;-81
2021/05/11 20:26:38;;;;;;;4.72;1.58;;;14.00;99.90;;;;;;10227190;28;20049;-80
2021/05/11 20:31:59;;;;;;;3.47;1.90;;;14.00;99.90;;;;;;10216618;28;20109;-80
2021/05/11 20:37:21;;;;;;;4.43;1.85;;;13.90;99.90;;;;;;10244778;28;20050;-78
2021/05/11 20:42:42;;;;;;;6.05;1.33;;;13.90;99.90;;;;;;10216684;28;20097;-78
2021/05/11 20:48:06;;;;;;;2.45;0.98;;;13.80;99.90;;;;;;10234363;28;22945;-80
2021/05/11 20:53:27;;;;;;;4.40;1.40;;;13.80;99.90;;;;;;10222758;28;20065;-80
2021/05/11 20:58:51;;;;;;;2.70;1.35;;;13.70;99.90;;;;;;10244641;28;20682;-80
2021/05/11 21:04:12;;;;;;;2.95;1.45;;;13.60;99.90;;;;;;10240490;28;20081;-81
2021/05/11 21:09:34;;;;;;;4.38;1.88;;;13.60;99.90;;;;;;10223900;28;20222;-81
2021/05/11 21:14:56;;;;;;;2.30;1.30;;;13.60;99.90;;;;;;10233399;28;20102;-81
2021/05/11 21:20:17;;;;;;;4.43;1.85;;;13.60;99.90;;;;;;10211593;28;20277;-80
2021/05/11 21:25:40;;;;;;;3.35;1.65;;;13.70;99.90;;;;;;10235579;28;20062;-80
2021/05/11 21:31:01;;;;;;;5.25;1.85;;;13.60;99.90;;;;;;10233025;28;20651;-80
2021/05/11 21:36:22;;;;;;;5.22;2.78;;;13.60;99.90;;;;;;10237238;28;20490;-81
2021/05/11 21:41:43;;;;;;;9.30;3.83;;;13.50;99.90;;;;;;10207451;28;20046;-80
2021/05/11 21:47:05;;;;;;;7.65;2.72;;;13.40;99.90;;;;;;10230774;28;20058;-80
2021/05/11 21:52:26;;;;;;;7.90;3.00;;;13.30;99.90;;;;;;10260264;28;20178;-81
2021/05/11 21:57:47;;;;;;;6.07;3.13;;;13.20;99.90;;;;;;10241815;28;20030;-80
2021/05/11 22:03:09;;;;;;;6.35;2.70;;;13.00;99.90;;;;;;10256556;28;20251;-80
2021/05/11 22:08:30;;;;;;;5.70;2.70;;;12.90;99.90;;;;;;10256775;28;20097;-79
2021/05/11 22:13:51;;;;;;;5.25;2.42;;;12.80;99.90;;;;;;10212469;28;20054;-79
2021/05/11 22:19:13;;;;;;;5.97;2.85;;;12.70;99.90;;;;;;10235635;28;20151;-80
2021/05/11 22:24:34;;;;;;;6.32;2.95;;;12.60;99.90;;;;;;10254124;28;20538;-78
2021/05/11 22:29:55;;;;;;;7.10;2.67;;;12.40;99.90;;;;;;10214224;28;20110;-78
2021/05/11 22:35:16;;;;;;;10.68;3.25;;;12.30;99.90;;;;;;10227653;28;20618;-80
2021/05/11 22:40:37;;;;;;;6.85;2.55;;;12.20;99.90;;;;;;10224734;28;21314;-79
2021/05/11 22:45:58;;;;;;;6.00;2.97;;;12.00;99.90;;;;;;10239265;28;20039;-79
2021/05/11 22:51:19;;;;;;;5.80;2.30;;;12.00;99.90;;;;;;10211671;28;20050;-79
2021/05/11 22:56:40;;;;;;;5.53;2.28;;;11.90;99.90;;;;;;10254209;28;20498;-78
2021/05/11 23:02:01;;;;;;;7.53;2.72;;;11.80;99.90;;;;;;10234185;28;20042;-79
2021/05/11 23:07:22;;;;;;;6.65;3.08;;;11.70;99.90;;;;;;10250860;28;20122;-79
2021/05/11 23:12:44;;;;;;;7.38;3.22;;;11.60;99.90;;;;;;10251769;28;20035;-79
2021/05/11 23:18:13;;;;;;;5.57;2.50;;;11.50;99.90;;;;;;10226987;28;20108;-80
2021/05/11 23:23:34;;;;;;;10.50;2.70;;;11.40;99.90;;;;;;10252688;28;20355;-79
2021/05/11 23:28:55;;;;;;;6.05;3.20;;;11.30;99.90;;;;;;10248854;28;20105;-80
2021/05/11 23:34:16;;;;;;;7.13;3.10;;;11.30;99.90;;;;;;10238242;28;20426;-79
2021/05/11 23:39:37;;;;;;;6.68;2.85;;;11.20;99.90;;;;;;10226619;28;20599;-80
2021/05/11 23:44:58;;;;;;;6.38;2.92;;;11.10;99.90;;;;;;10238554;28;20395;-81
2021/05/11 23:50:21;;;;;;;8.48;2.80;;;11.10;99.90;;;;;;10239977;28;20580;-80
2021/05/11 23:55:42;;;;;;;5.70;2.80;;;11.10;99.90;;;;;;10233961;28;20051;-80
